Time,TemperatureF,DewpointF,PressureIn,WindDirection,WindDirectionDegrees,WindSpeedMPH,WindSpeedGustMPH,Humidity,HourlyPrecipIn,Conditions,Clouds,dailyrainin,SoftwareType,DateUTC
2013-02-20 00:00:00,15.7,10.9,30.11,West,267,9.0,20.0,81,0.00,,---,0.00,VWS V14.00,2013-02-20 05:00:00,
2013-02-20 00:30:00,15.6,10.5,30.12,WNW,299,17.0,22.0,80,0.00,,---,0.00,VWS V14.00,2013-02-20 05:30:00,
2013-02-20 01:00:00,15.7,10.6,30.13,WNW,300,11.0,18.0,80,0.00,,---,0.00,VWS V14.00,2013-02-20 06:00:00,
2013-02-20 01:30:00,15.9,11.1,30.14,WNW,284,12.0,18.0,81,0.00,,---,0.00,VWS V14.00,2013-02-20 06:30:00,
2013-02-20 02:00:00,15.6,10.8,30.15,WNW,285,10.0,20.0,81,0.00,,---,0.00,VWS V14.00,2013-02-20 07:00:00,
2013-02-20 02:30:00,15.0,10.2,30.17,West,280,10.0,17.0,81,0.00,,---,0.00,VWS V14.00,2013-02-20 07:30:00,
2013-02-20 03:00:00,15.0,10.2,30.18,West,270,14.0,19.0,81,0.00,,---,0.00,VWS V14.00,2013-02-20 08:00:00,
2013-02-20 03:30:00,14.8,10.6,30.19,WNW,284,15.0,20.0,83,0.00,,---,0.00,VWS V14.00,2013-02-20 08:30:00,
2013-02-20 04:00:00,14.8,10.6,30.19,West,278,10.0,17.0,83,0.00,,---,0.00,VWS V14.00,2013-02-20 09:00:00,
2013-02-20 04:30:00,14.2,10.8,30.20,West,268,12.0,16.0,86,0.00,,---,0.00,VWS V14.00,2013-02-20 09:30:00,
2013-02-20 05:00:00,13.9,10.2,30.21,WNW,282,11.0,17.0,85,0.00,,---,0.00,VWS V14.00,2013-02-20 10:00:00,
2013-02-20 05:30:00,13.3,9.4,30.23,West,276,9.0,17.0,84,0.00,,---,0.00,VWS V14.00,2013-02-20 10:30:00,
2013-02-20 06:00:00,13.4,9.7,30.24,West,269,12.0,17.0,85,0.00,,---,0.00,VWS V14.00,2013-02-20 11:00:00,
2013-02-20 06:30:00,12.9,9.0,30.24,WNW,287,9.0,15.0,84,0.00,,---,0.00,VWS V14.00,2013-02-20 11:30:00,
2013-02-20 07:00:00,12.3,8.7,30.24,West,276,8.0,17.0,85,0.00,,---,0.00,VWS V14.00,2013-02-20 12:00:00,
2013-02-20 07:30:00,12.5,9.1,30.25,WNW,288,8.0,16.0,86,0.00,,---,0.00,VWS V14.00,2013-02-20 12:30:00,
2013-02-20 08:00:00,12.7,9.3,30.25,West,280,7.0,15.0,86,0.00,,---,0.00,VWS V14.00,2013-02-20 13:00:00,
2013-02-20 08:30:00,12.9,9.5,30.26,West,274,9.0,15.0,86,0.00,,---,0.00,VWS V14.00,2013-02-20 13:30:00,
2013-02-20 09:00:00,13.2,10.1,30.27,West,259,9.0,15.0,87,0.00,,---,0.00,VWS V14.00,2013-02-20 14:00:00,
2013-02-20 09:30:00,13.6,10.2,30.27,West,267,8.0,15.0,86,0.00,,---,0.00,VWS V14.00,2013-02-20 14:30:00,
2013-02-20 10:00:00,14.1,10.7,30.28,West,273,8.0,15.0,86,0.00,,---,0.00,VWS V14.00,2013-02-20 15:00:00,
2013-02-20 10:30:00,15.6,11.9,30.28,WNW,293,7.0,14.0,85,0.00,,---,0.00,VWS V14.00,2013-02-20 15:30:00,
2013-02-20 11:00:00,17.3,13.0,30.30,WNW,284,13.0,17.0,83,0.00,,---,0.00,VWS V14.00,2013-02-20 16:00:00,
2013-02-20 11:30:00,18.3,14.0,30.30,WNW,292,9.0,22.0,83,0.00,,---,0.00,VWS V14.00,2013-02-20 16:30:00,
2013-02-20 12:00:00,18.9,14.0,30.31,West,273,13.0,19.0,81,0.00,,---,0.00,VWS V14.00,2013-02-20 17:00:00,
2013-02-20 12:30:00,19.5,14.9,30.31,WNW,294,9.0,15.0,82,0.00,,---,0.00,VWS V14.00,2013-02-20 17:30:00,
2013-02-20 13:00:00,19.6,15.3,30.31,WNW,292,10.0,16.0,83,0.00,,---,0.00,VWS V14.00,2013-02-20 18:00:00,
2013-02-20 13:30:00,20.2,15.0,30.30,WNW,301,11.0,17.0,80,0.00,,---,0.00,VWS V14.00,2013-02-20 18:30:00,
2013-02-20 14:00:00,20.9,15.4,30.31,WNW,290,8.0,18.0,79,0.00,,---,0.00,VWS V14.00,2013-02-20 19:00:00,
2013-02-20 14:30:00,21.6,16.1,30.32,WNW,297,9.0,19.0,79,0.00,,---,0.00,VWS V14.00,2013-02-20 19:30:00,
2013-02-20 15:00:00,21.9,16.4,30.33,West,276,12.0,18.0,79,0.00,,---,0.00,VWS V14.00,2013-02-20 20:00:00,
2013-02-20 15:30:00,21.7,16.2,30.34,WNW,300,16.0,18.0,79,0.00,,---,0.00,VWS V14.00,2013-02-20 20:30:00,
2013-02-20 16:00:00,21.4,16.8,30.33,NW,316,11.0,20.0,82,0.00,,---,0.00,VWS V14.00,2013-02-20 21:00:00,
2013-02-20 16:30:00,21.4,16.8,30.33,WNW,300,15.0,19.0,82,0.00,,---,0.00,VWS V14.00,2013-02-20 21:30:00,
2013-02-20 17:00:00,21.1,16.5,30.32,WNW,300,15.0,19.0,82,0.00,,---,0.00,VWS V14.00,2013-02-20 22:00:00,
2013-02-20 17:30:00,20.8,16.5,30.33,NW,307,15.0,18.0,83,0.00,,---,0.00,VWS V14.00,2013-02-20 22:30:00,
2013-02-20 18:00:00,20.8,16.7,30.34,WNW,294,10.0,16.0,84,0.00,,---,0.00,VWS V14.00,2013-02-20 23:00:00,
2013-02-20 18:30:00,20.5,16.7,30.35,WNW,302,7.0,15.0,85,0.00,,---,0.00,VWS V14.00,2013-02-20 23:30:00,
2013-02-20 19:00:00,20.2,16.4,30.35,WNW,299,8.0,16.0,85,0.00,,---,0.00,VWS V14.00,2013-02-21 00:00:00,
2013-02-20 19:30:00,20.4,17.2,30.35,WNW,284,10.0,13.0,87,0.00,,---,0.00,VWS V14.00,2013-02-21 00:30:00,
2013-02-20 20:00:00,20.9,17.6,30.36,NW,316,8.0,12.0,87,0.00,,---,0.00,VWS V14.00,2013-02-21 01:00:00,
2013-02-20 20:30:00,21.4,18.1,30.35,NW,325,7.0,14.0,87,0.00,,---,0.00,VWS V14.00,2013-02-21 01:30:00,
2013-02-20 21:00:00,21.5,18.0,30.35,NW,316,7.0,11.0,86,0.00,,---,0.00,VWS V14.00,2013-02-21 02:00:00,
2013-02-20 21:30:00,21.6,18.3,30.35,NNW,329,5.0,11.0,87,0.00,,---,0.00,VWS V14.00,2013-02-21 02:30:00,
2013-02-20 22:00:00,22.1,18.8,30.35,NNE,18,3.0,10.0,87,0.00,,---,0.00,VWS V14.00,2013-02-21 03:00:00,
2013-02-20 22:30:00,22.1,17.5,30.34,NNE,15,5.0,13.0,82,0.00,,---,0.00,VWS V14.00,2013-02-21 03:30:00,
2013-02-20 23:00:00,22.2,17.5,30.35,NE,40,5.0,12.0,82,0.00,,---,0.00,VWS V14.00,2013-02-21 04:00:00,
2013-02-20 23:30:00,22.0,16.8,30.35,NNE,15,6.0,12.0,80,0.00,,---,0.00,VWS V14.00,2013-02-21 04:30:00,